sensor_id;sensor_type;location;lat;lon;timestamp;pressure;altitude;pressure_sealevel;temperature;humidity
23427;BME280;41148;45.420;10.952;2024-03-06T00:00:17;100326.72;;;11.74;99.08
23427;BME280;41148;45.420;10.952;2024-03-06T00:02:45;100321.28;;;11.78;98.80
23427;BME280;41148;45.420;10.952;2024-03-06T00:05:12;100332.91;;;11.75;97.12
23427;BME280;41148;45.420;10.952;2024-03-06T00:07:39;100329.31;;;11.76;96.37
23427;BME280;41148;45.420;10.952;2024-03-06T00:10:07;100331.66;;;11.62;97.26
23427;BME280;41148;45.420;10.952;2024-03-06T00:12:35;100332.59;;;11.61;97.56
23427;BME280;41148;45.420;10.952;2024-03-06T00:15:02;100331.78;;;11.59;97.42
23427;BME280;41148;45.420;10.952;2024-03-06T00:17:30;100331.78;;;11.59;97.59
23427;BME280;41148;45.420;10.952;2024-03-06T00:19:58;100329.47;;;11.50;99.21
23427;BME280;41148;45.420;10.952;2024-03-06T00:22:25;100335.53;;;11.53;99.07
23427;BME280;41148;45.420;10.952;2024-03-06T00:24:52;100333.28;;;11.42;99.65
23427;BME280;41148;45.420;10.952;2024-03-06T00:27:19;100336.22;;;11.35;100.00
23427;BME280;41148;45.420;10.952;2024-03-06T00:29:47;100326.06;;;11.21;100.00
23427;BME280;41148;45.420;10.952;2024-03-06T00:32:14;100321.47;;;11.25;100.00
23427;BME280;41148;45.420;10.952;2024-03-06T00:34:41;100328.72;;;11.21;100.00
23427;BME280;41148;45.420;10.952;2024-03-06T00:37:09;100334.59;;;11.31;100.00
23427;BME280;41148;45.420;10.952;2024-03-06T00:39:36;100337.97;;;11.36;100.00
23427;BME280;41148;45.420;10.952;2024-03-06T00:42:03;100330.75;;;11.38;100.00
23427;BME280;41148;45.420;10.952;2024-03-06T00:44:30;100335.94;;;11.42;100.00
23427;BME280;41148;45.420;10.952;2024-03-06T00:46:57;100334.34;;;11.37;100.00
23427;BME280;41148;45.420;10.952;2024-03-06T00:49:25;100328.09;;;11.38;100.00
23427;BME280;41148;45.420;10.952;2024-03-06T00:51:53;100329.88;;;11.14;100.00
23427;BME280;41148;45.420;10.952;2024-03-06T00:54:20;100322.75;;;11.14;100.00
23427;BME280;41148;45.420;10.952;2024-03-06T00:56:48;100326.16;;;11.18;100.00
23427;BME280;41148;45.420;10.952;2024-03-06T00:59:15;100325.03;;;11.25;100.00
23427;BME280;41148;45.420;10.952;2024-03-06T01:01:42;100331.50;;;11.18;100.00
23427;BME280;41148;45.420;10.952;2024-03-06T01:04:10;100328.13;;;11.13;100.00
23427;BME280;41148;45.420;10.952;2024-03-06T01:06:37;100326.22;;;11.16;100.00
23427;BME280;41148;45.420;10.952;2024-03-06T01:09:04;100331.78;;;11.10;100.00
23427;BME280;41148;45.420;10.952;2024-03-06T01:11:32;100329.81;;;11.15;100.00
23427;BME280;41148;45.420;10.952;2024-03-06T01:13:59;100330.94;;;11.08;100.00
23427;BME280;41148;45.420;10.952;2024-03-06T01:16:27;100324.66;;;11.11;99.71
23427;BME280;41148;45.420;10.952;2024-03-06T01:18:54;100317.47;;;11.13;98.31
23427;BME280;41148;45.420;10.952;2024-03-06T01:21:21;100327.34;;;11.09;97.08
23427;BME280;41148;45.420;10.952;2024-03-06T01:23:49;100321.81;;;11.15;96.74
23427;BME280;41148;45.420;10.952;2024-03-06T01:26:16;100327.97;;;11.17;95.44
23427;BME280;41148;45.420;10.952;2024-03-06T01:28:43;100322.94;;;11.08;96.58
23427;BME280;41148;45.420;10.952;2024-03-06T01:31:11;100317.53;;;11.11;95.30
23427;BME280;41148;45.420;10.952;2024-03-06T01:33:38;100322.75;;;11.14;95.24
23427;BME280;41148;45.420;10.952;2024-03-06T01:36:06;100322.94;;;11.10;95.51
23427;BME280;41148;45.420;10.952;2024-03-06T01:38:33;100324.38;;;11.18;95.00
23427;BME280;41148;45.420;10.952;2024-03-06T01:41:00;100320.88;;;11.16;95.30
23427;BME280;41148;45.420;10.952;2024-03-06T01:43:28;100314.88;;;11.11;95.94
23427;BME280;41148;45.420;10.952;2024-03-06T01:45:55;100313.47;;;11.00;95.50
23427;BME280;41148;45.420;10.952;2024-03-06T01:48:27;100321.88;;;10.89;96.45
23427;BME280;41148;45.420;10.952;2024-03-06T01:50:55;100318.81;;;11.00;96.34
23427;BME280;41148;45.420;10.952;2024-03-06T01:53:23;100311.75;;;10.99;95.42
23427;BME280;41148;45.420;10.952;2024-03-06T01:55:51;100323.94;;;11.06;95.68
23427;BME280;41148;45.420;10.952;2024-03-06T01:58:19;100329.28;;;11.06;95.14
23427;BME280;41148;45.420;10.952;2024-03-06T02:00:49;100335.53;;;11.05;95.62
23427;BME280;41148;45.420;10.952;2024-03-06T02:03:17;100333.72;;;11.05;95.77
23427;BME280;41148;45.420;10.952;2024-03-06T02:05:48;100336.53;;;11.02;96.18
23427;BME280;41148;45.420;10.952;2024-03-06T02:08:15;100334.72;;;11.03;96.19
23427;BME280;41148;45.420;10.952;2024-03-06T02:10:44;100327.84;;;10.96;96.53
23427;BME280;41148;45.420;10.952;2024-03-06T02:13:12;100326.25;;;10.90;97.40
23427;BME280;41148;45.420;10.952;2024-03-06T02:15:39;100334.56;;;10.82;98.35
23427;BME280;41148;45.420;10.952;2024-03-06T02:18:07;100328.94;;;10.90;97.92
23427;BME280;41148;45.420;10.952;2024-03-06T02:20:39;100318.94;;;10.72;98.49
23427;BME280;41148;45.420;10.952;2024-03-06T02:23:08;100322.16;;;10.81;98.67
23427;BME280;41148;45.420;10.952;2024-03-06T02:25:35;100316.72;;;10.84;98.33
23427;BME280;41148;45.420;10.952;2024-03-06T02:28:03;100319.75;;;10.74;98.54
23427;BME280;41148;45.420;10.952;2024-03-06T02:30:31;100331.41;;;10.71;98.45
23427;BME280;41148;45.420;10.952;2024-03-06T02:33:04;100322.34;;;10.75;97.64
23427;BME280;41148;45.420;10.952;2024-03-06T02:35:34;100332.47;;;10.66;98.17
23427;BME280;41148;45.420;10.952;2024-03-06T02:38:03;100332.25;;;10.72;97.54
23427;BME280;41148;45.420;10.952;2024-03-06T02:40:32;100324.78;;;10.56;98.15
23427;BME280;41148;45.420;10.952;2024-03-06T02:42:59;100332.41;;;10.67;97.41
23427;BME280;41148;45.420;10.952;2024-03-06T02:45:26;100327.44;;;10.56;97.51
23427;BME280;41148;45.420;10.952;2024-03-06T02:47:54;100332.50;;;10.64;96.79
23427;BME280;41148;45.420;10.952;2024-03-06T02:50:21;100333.50;;;10.62;96.77
23427;BME280;41148;45.420;10.952;2024-03-06T02:52:50;100328.97;;;10.64;96.99
23427;BME280;41148;45.420;10.952;2024-03-06T02:55:19;100336.09;;;10.63;96.19
23427;BME280;41148;45.420;10.952;2024-03-06T02:57:46;100342.06;;;10.71;95.68
23427;BME280;41148;45.420;10.952;2024-03-06T03:00:13;100341.22;;;10.69;95.99
23427;BME280;41148;45.420;10.952;2024-03-06T03:02:43;100343.81;;;10.71;95.70
23427;BME280;41148;45.420;10.952;2024-03-06T03:05:10;100335.81;;;10.71;95.46
23427;BME280;41148;45.420;10.952;2024-03-06T03:07:39;100346.28;;;10.77;94.96
23427;BME280;41148;45.420;10.952;2024-03-06T03:10:06;100343.72;;;10.74;95.27
23427;BME280;41148;45.420;10.952;2024-03-06T03:12:34;100340.41;;;10.67;95.07
23427;BME280;41148;45.420;10.952;2024-03-06T03:15:01;100338.03;;;10.58;95.60
23427;BME280;41148;45.420;10.952;2024-03-06T03:17:29;100332.75;;;10.56;95.46
23427;BME280;41148;45.420;10.952;2024-03-06T03:20:00;100343.00;;;10.69;94.33
23427;BME280;41148;45.420;10.952;2024-03-06T03:22:27;100346.44;;;10.72;94.21
23427;BME280;41148;45.420;10.952;2024-03-06T03:24:55;100344.47;;;10.77;93.61
23427;BME280;41148;45.420;10.952;2024-03-06T03:27:22;100346.47;;;10.71;93.69
23427;BME280;41148;45.420;10.952;2024-03-06T03:29:50;100346.16;;;10.80;93.64
23427;BME280;41148;45.420;10.952;2024-03-06T03:32:17;100348.88;;;10.78;93.26
23427;BME280;41148;45.420;10.952;2024-03-06T03:34:44;100343.78;;;10.72;94.07
23427;BME280;41148;45.420;10.952;2024-03-06T03:37:13;100344.38;;;10.80;92.40
23427;BME280;41148;45.420;10.952;2024-03-06T03:39:40;100330.09;;;10.83;93.40
23427;BME280;41148;45.420;10.952;2024-03-06T03:42:09;100333.72;;;10.80;93.73
23427;BME280;41148;45.420;10.952;2024-03-06T03:44:36;100327.50;;;10.80;93.08
23427;BME280;41148;45.420;10.952;2024-03-06T03:47:03;100337.34;;;10.78;92.13
23427;BME280;41148;45.420;10.952;2024-03-06T03:49:30;100331.16;;;10.77;92.48
23427;BME280;41148;45.420;10.952;2024-03-06T03:51:58;100332.28;;;10.70;93.40
23427;BME280;41148;45.420;10.952;2024-03-06T03:54:25;100336.75;;;10.70;94.07
23427;BME280;41148;45.420;10.952;2024-03-06T03:56:52;100328.94;;;10.65;94.23
23427;BME280;41148;45.420;10.952;2024-03-06T03:59:20;100334.44;;;10.59;93.80
23427;BME280;41148;45.420;10.952;2024-03-06T04:01:48;100333.38;;;10.65;93.88
23427;BME280;41148;45.420;10.952;2024-03-06T04:04:15;100333.81;;;10.52;93.50
23427;BME280;41148;45.420;10.952;2024-03-06T04:06:42;100340.75;;;10.56;94.63
23427;BME280;41148;45.420;10.952;2024-03-06T04:09:09;100342.84;;;10.47;94.40
23427;BME280;41148;45.420;10.952;2024-03-06T04:11:37;100334.44;;;10.59;93.50
23427;BME280;41148;45.420;10.952;2024-03-06T04:14:04;100340.66;;;10.59;93.40
23427;BME280;41148;45.420;10.952;2024-03-06T04:16:33;100340.69;;;10.58;93.59
23427;BME280;41148;45.420;10.952;2024-03-06T04:19:03;100339.94;;;10.54;93.78
23427;BME280;41148;45.420;10.952;2024-03-06T04:21:30;100343.41;;;10.56;93.17
23427;BME280;41148;45.420;10.952;2024-03-06T04:23:58;100350.69;;;10.51;93.63
23427;BME280;41148;45.420;10.952;2024-03-06T04:26:25;100353.09;;;10.59;93.79
23427;BME280;41148;45.420;10.952;2024-03-06T04:28:52;100346.09;;;10.56;93.72
23427;BME280;41148;45.420;10.952;2024-03-06T04:31:20;100360.28;;;10.57;94.47
23427;BME280;41148;45.420;10.952;2024-03-06T04:33:47;100362.88;;;10.58;94.42
23427;BME280;41148;45.420;10.952;2024-03-06T04:36:14;100370.06;;;10.56;94.49
23427;BME280;41148;45.420;10.952;2024-03-06T04:38:42;100380.81;;;10.53;94.55
23427;BME280;41148;45.420;10.952;2024-03-06T04:41:09;100377.19;;;10.56;94.83
23427;BME280;41148;45.420;10.952;2024-03-06T04:43:37;100374.56;;;10.54;94.57
23427;BME280;41148;45.420;10.952;2024-03-06T04:46:05;100382.81;;;10.47;95.25
23427;BME280;41148;45.420;10.952;2024-03-06T04:48:32;100380.31;;;10.42;96.12
23427;BME280;41148;45.420;10.952;2024-03-06T04:50:59;100390.34;;;10.32;96.57
23427;BME280;41148;45.420;10.952;2024-03-06T04:53:27;100401.31;;;10.23;97.50
23427;BME280;41148;45.420;10.952;2024-03-06T04:55:54;100396.88;;;10.24;97.87
23427;BME280;41148;45.420;10.952;2024-03-06T04:58:21;100403.16;;;10.20;99.02
23427;BME280;41148;45.420;10.952;2024-03-06T05:00:48;100397.97;;;10.15;99.53
23427;BME280;41148;45.420;10.952;2024-03-06T05:03:16;100399.78;;;10.15;100.00
23427;BME280;41148;45.420;10.952;2024-03-06T05:06:00;100405.22;;;10.10;100.00
23427;BME280;41148;45.420;10.952;2024-03-06T05:08:45;100399.03;;;10.10;100.00
23427;BME280;41148;45.420;10.952;2024-03-06T05:11:30;100404.06;;;10.19;100.00
23427;BME280;41148;45.420;10.952;2024-03-06T05:14:16;100410.38;;;10.16;100.00
23427;BME280;41148;45.420;10.952;2024-03-06T05:17:01;100421.72;;;10.23;100.00
23427;BME280;41148;45.420;10.952;2024-03-06T05:19:46;100421.47;;;10.30;99.88
23427;BME280;41148;45.420;10.952;2024-03-06T05:22:34;100424.16;;;10.30;99.80
23427;BME280;41148;45.420;10.952;2024-03-06T05:25:19;100424.94;;;10.34;99.95
23427;BME280;41148;45.420;10.952;2024-03-06T05:28:04;100433.84;;;10.33;99.78
23427;BME280;41148;45.420;10.952;2024-03-06T05:30:49;100429.63;;;10.26;100.00
23427;BME280;41148;45.420;10.952;2024-03-06T05:33:35;100430.50;;;10.26;100.00
23427;BME280;41148;45.420;10.952;2024-03-06T05:36:20;100441.78;;;10.35;100.00
23427;BME280;41148;45.420;10.952;2024-03-06T05:39:04;100439.31;;;10.28;99.77
23427;BME280;41148;45.420;10.952;2024-03-06T05:42:00;100438.50;;;10.26;100.00
23427;BME280;41148;45.420;10.952;2024-03-06T05:44:47;100436.69;;;10.27;100.00
23427;BME280;41148;45.420;10.952;2024-03-06T05:47:33;100440.06;;;10.34;100.00
23427;BME280;41148;45.420;10.952;2024-03-06T05:50:17;100434.66;;;10.35;100.00
23427;BME280;41148;45.420;10.952;2024-03-06T05:53:03;100450.66;;;10.35;100.00
23427;BME280;41148;45.420;10.952;2024-03-06T05:55:47;100451.38;;;10.40;100.00
23427;BME280;41148;45.420;10.952;2024-03-06T05:58:32;100448.81;;;10.37;100.00
23427;BME280;41148;45.420;10.952;2024-03-06T06:01:01;100452.06;;;10.47;98.93
23427;BME280;41148;45.420;10.952;2024-03-06T06:03:31;100450.69;;;10.34;99.69
23427;BME280;41148;45.420;10.952;2024-03-06T06:05:59;100446.19;;;10.36;99.47
23427;BME280;41148;45.420;10.952;2024-03-06T06:08:26;100451.28;;;10.43;99.41
23427;BME280;41148;45.420;10.952;2024-03-06T06:10:53;100453.25;;;10.37;99.46
23427;BME280;41148;45.420;10.952;2024-03-06T06:13:22;100466.56;;;10.37;99.10
23427;BME280;41148;45.420;10.952;2024-03-06T06:15:49;100458.19;;;10.49;99.23
23427;BME280;41148;45.420;10.952;2024-03-06T06:18:17;100461.09;;;10.41;99.33
23427;BME280;41148;45.420;10.952;2024-03-06T06:20:44;100465.38;;;10.47;98.41
23427;BME280;41148;45.420;10.952;2024-03-06T06:23:11;100478.69;;;10.47;98.99
23427;BME280;41148;45.420;10.952;2024-03-06T06:25:39;100473.19;;;10.51;97.62
23427;BME280;41148;45.420;10.952;2024-03-06T06:28:06;100476.50;;;10.59;96.99
23427;BME280;41148;45.420;10.952;2024-03-06T06:30:35;100484.41;;;10.63;96.33
23427;BME280;41148;45.420;10.952;2024-03-06T06:33:02;100485.94;;;10.70;96.12
23427;BME280;41148;45.420;10.952;2024-03-06T06:35:30;100484.16;;;10.70;95.91
23427;BME280;41148;45.420;10.952;2024-03-06T06:37:57;100485.34;;;10.62;96.00
23427;BME280;41148;45.420;10.952;2024-03-06T06:40:24;100481.53;;;10.69;95.64
23427;BME280;41148;45.420;10.952;2024-03-06T06:42:52;100484.25;;;10.67;95.79
23427;BME280;41148;45.420;10.952;2024-03-06T06:45:19;100489.16;;;10.81;94.81
23427;BME280;41148;45.420;10.952;2024-03-06T06:47:47;100483.63;;;10.87;93.37
23427;BME280;41148;45.420;10.952;2024-03-06T06:50:15;100485.28;;;10.91;93.81
23427;BME280;41148;45.420;10.952;2024-03-06T06:52:43;100485.28;;;10.91;94.23
23427;BME280;41148;45.420;10.952;2024-03-06T06:55:10;100478.91;;;10.95;94.15
23427;BME280;41148;45.420;10.952;2024-03-06T06:57:39;100485.84;;;11.01;92.70
23427;BME280;41148;45.420;10.952;2024-03-06T07:00:07;100490.91;;;11.08;92.61
23427;BME280;41148;45.420;10.952;2024-03-06T07:02:40;100487.31;;;11.09;92.52
23427;BME280;41148;45.420;10.952;2024-03-06T07:05:11;100489.72;;;11.17;92.63
23427;BME280;41148;45.420;10.952;2024-03-06T07:07:38;100488.00;;;11.16;92.51
23427;BME280;41148;45.420;10.952;2024-03-06T07:10:06;100489.69;;;11.18;92.73
23427;BME280;41148;45.420;10.952;2024-03-06T07:12:34;100479.75;;;11.24;92.15
23427;BME280;41148;45.420;10.952;2024-03-06T07:15:02;100484.56;;;11.39;90.56
23427;BME280;41148;45.420;10.952;2024-03-06T07:17:31;100485.19;;;11.45;89.68
23427;BME280;41148;45.420;10.952;2024-03-06T07:19:58;100490.53;;;11.45;90.60
23427;BME280;41148;45.420;10.952;2024-03-06T07:22:25;100493.31;;;11.42;89.61
23427;BME280;41148;45.420;10.952;2024-03-06T07:24:52;100484.56;;;11.39;88.93
23427;BME280;41148;45.420;10.952;2024-03-06T07:27:19;100488.81;;;11.44;88.92
23427;BME280;41148;45.420;10.952;2024-03-06T07:29:47;100496.78;;;11.71;87.52
23427;BME280;41148;45.420;10.952;2024-03-06T07:32:14;100506.56;;;12.20;85.67
23427;BME280;41148;45.420;10.952;2024-03-06T07:34:41;100504.44;;;12.97;80.47
23427;BME280;41148;45.420;10.952;2024-03-06T07:37:09;100509.50;;;13.67;76.81
23427;BME280;41148;45.420;10.952;2024-03-06T07:39:36;100514.31;;;13.59;74.82
23427;BME280;41148;45.420;10.952;2024-03-06T07:42:04;100514.41;;;14.17;71.35
23427;BME280;41148;45.420;10.952;2024-03-06T07:44:31;100516.00;;;14.02;70.90
23427;BME280;41148;45.420;10.952;2024-03-06T07:46:59;100520.16;;;14.68;69.07
23427;BME280;41148;45.420;10.952;2024-03-06T07:49:26;100520.63;;;14.38;68.64
23427;BME280;41148;45.420;10.952;2024-03-06T07:51:54;100516.31;;;14.73;66.81
23427;BME280;41148;45.420;10.952;2024-03-06T07:54:21;100523.72;;;14.87;66.91
23427;BME280;41148;45.420;10.952;2024-03-06T07:56:48;100523.63;;;14.12;68.58
23427;BME280;41148;45.420;10.952;2024-03-06T07:59:16;100530.63;;;15.10;65.15
23427;BME280;41148;45.420;10.952;2024-03-06T08:01:45;100540.63;;;15.25;63.23
23427;BME280;41148;45.420;10.952;2024-03-06T08:04:12;100543.28;;;14.89;64.19
23427;BME280;41148;45.420;10.952;2024-03-06T08:06:39;100540.25;;;14.59;64.36
23427;BME280;41148;45.420;10.952;2024-03-06T08:09:06;100552.78;;;14.38;64.38
23427;BME280;41148;45.420;10.952;2024-03-06T08:11:36;100558.09;;;13.79;67.20
23427;BME280;41148;45.420;10.952;2024-03-06T08:14:05;100555.03;;;14.86;64.38
23427;BME280;41148;45.420;10.952;2024-03-06T08:16:42;100555.34;;;16.55;58.18
23427;BME280;41148;45.420;10.952;2024-03-06T08:19:10;100561.88;;;15.11;61.44
23427;BME280;41148;45.420;10.952;2024-03-06T08:21:37;100563.59;;;15.67;59.30
23427;BME280;41148;45.420;10.952;2024-03-06T08:24:05;100573.47;;;16.67;55.75
23427;BME280;41148;45.420;10.952;2024-03-06T08:26:32;100569.41;;;16.60;54.52
23427;BME280;41148;45.420;10.952;2024-03-06T08:29:00;100583.03;;;16.40;54.77
23427;BME280;41148;45.420;10.952;2024-03-06T08:31:28;100572.44;;;17.19;54.17
23427;BME280;41148;45.420;10.952;2024-03-06T08:33:56;100568.84;;;16.86;53.94
23427;BME280;41148;45.420;10.952;2024-03-06T08:36:23;100581.38;;;16.37;54.39
23427;BME280;41148;45.420;10.952;2024-03-06T08:38:51;100574.44;;;15.83;54.84
23427;BME280;41148;45.420;10.952;2024-03-06T08:41:19;100575.00;;;15.17;57.80
23427;BME280;41148;45.420;10.952;2024-03-06T08:43:47;100576.63;;;15.38;56.63
23427;BME280;41148;45.420;10.952;2024-03-06T08:46:15;100577.63;;;16.57;54.12
23427;BME280;41148;45.420;10.952;2024-03-06T08:48:43;100579.19;;;16.94;51.97
23427;BME280;41148;45.420;10.952;2024-03-06T08:51:10;100582.56;;;18.49;48.84
23427;BME280;41148;45.420;10.952;2024-03-06T08:53:38;100595.22;;;17.74;48.90
23427;BME280;41148;45.420;10.952;2024-03-06T08:56:05;100593.25;;;18.37;47.82
23427;BME280;41148;45.420;10.952;2024-03-06T08:58:33;100599.41;;;17.33;50.26
23427;BME280;41148;45.420;10.952;2024-03-06T09:01:01;100606.72;;;16.33;53.09
23427;BME280;41148;45.420;10.952;2024-03-06T09:03:28;100610.84;;;15.88;54.11
23427;BME280;41148;45.420;10.952;2024-03-06T09:05:56;100611.59;;;16.42;53.23
23427;BME280;41148;45.420;10.952;2024-03-06T09:08:24;100610.53;;;17.27;50.40
23427;BME280;41148;45.420;10.952;2024-03-06T09:10:51;100619.38;;;15.96;54.46
23427;BME280;41148;45.420;10.952;2024-03-06T09:13:18;100623.44;;;15.14;56.78
23427;BME280;41148;45.420;10.952;2024-03-06T09:15:46;100609.72;;;15.39;57.65
23427;BME280;41148;45.420;10.952;2024-03-06T09:18:13;100609.06;;;17.05;52.66
23427;BME280;41148;45.420;10.952;2024-03-06T09:20:42;100622.75;;;17.64;50.28
23427;BME280;41148;45.420;10.952;2024-03-06T09:23:10;100621.19;;;16.81;53.10
23427;BME280;41148;45.420;10.952;2024-03-06T09:25:38;100620.59;;;16.92;52.20
23427;BME280;41148;45.420;10.952;2024-03-06T09:28:05;100618.34;;;16.67;54.87
23427;BME280;41148;45.420;10.952;2024-03-06T09:30:34;100623.88;;;15.96;54.90
23427;BME280;41148;45.420;10.952;2024-03-06T09:33:02;100625.06;;;14.99;59.06
23427;BME280;41148;45.420;10.952;2024-03-06T09:35:30;100630.47;;;14.19;61.41
23427;BME280;41148;45.420;10.952;2024-03-06T09:38:00;100637.94;;;14.11;63.51
23427;BME280;41148;45.420;10.952;2024-03-06T09:40:28;100631.50;;;14.36;62.63
23427;BME280;41148;45.420;10.952;2024-03-06T09:42:56;100634.13;;;14.17;62.98
23427;BME280;41148;45.420;10.952;2024-03-06T09:45:24;100626.00;;;13.98;65.08
23427;BME280;41148;45.420;10.952;2024-03-06T09:47:54;100631.78;;;14.09;65.49
23427;BME280;41148;45.420;10.952;2024-03-06T09:50:23;100629.97;;;14.30;63.41
23427;BME280;41148;45.420;10.952;2024-03-06T09:52:52;100627.56;;;14.24;64.82
23427;BME280;41148;45.420;10.952;2024-03-06T09:55:22;100624.81;;;14.05;63.25
23427;BME280;41148;45.420;10.952;2024-03-06T09:57:50;100631.38;;;13.98;64.05
23427;BME280;41148;45.420;10.952;2024-03-06T10:00:17;100627.88;;;14.37;64.83
23427;BME280;41148;45.420;10.952;2024-03-06T10:02:51;100628.09;;;14.12;62.52
23427;BME280;41148;45.420;10.952;2024-03-06T10:05:22;100623.47;;;14.36;61.62
23427;BME280;41148;45.420;10.952;2024-03-06T10:07:50;100626.47;;;14.69;62.64
23427;BME280;41148;45.420;10.952;2024-03-06T10:10:19;100631.31;;;14.20;64.07
23427;BME280;41148;45.420;10.952;2024-03-06T10:12:46;100634.09;;;14.37;63.84
23427;BME280;41148;45.420;10.952;2024-03-06T10:15:16;100630.09;;;14.27;63.72
23427;BME280;41148;45.420;10.952;2024-03-06T10:17:44;100636.88;;;14.15;64.23
23427;BME280;41148;45.420;10.952;2024-03-06T10:20:22;100636.41;;;14.06;64.34
23427;BME280;41148;45.420;10.952;2024-03-06T10:22:50;100632.06;;;14.03;65.13
23427;BME280;41148;45.420;10.952;2024-03-06T10:25:25;100633.47;;;14.12;63.79
23427;BME280;41148;45.420;10.952;2024-03-06T10:28:03;100634.00;;;13.99;64.67
23427;BME280;41148;45.420;10.952;2024-03-06T10:30:31;100645.84;;;13.94;65.73
23427;BME280;41148;45.420;10.952;2024-03-06T10:32:58;100644.06;;;13.72;65.79
23427;BME280;41148;45.420;10.952;2024-03-06T10:35:27;100638.00;;;13.67;65.73
23427;BME280;41148;45.420;10.952;2024-03-06T10:37:55;100643.81;;;13.57;65.92
23427;BME280;41148;45.420;10.952;2024-03-06T10:40:23;100639.91;;;13.65;64.94
23427;BME280;41148;45.420;10.952;2024-03-06T10:42:50;100635.03;;;13.75;64.05
23427;BME280;41148;45.420;10.952;2024-03-06T10:45:18;100640.69;;;13.67;64.69
23427;BME280;41148;45.420;10.952;2024-03-06T10:47:49;100638.53;;;13.55;65.91
23427;BME280;41148;45.420;10.952;2024-03-06T10:50:19;100632.66;;;13.67;63.16
23427;BME280;41148;45.420;10.952;2024-03-06T10:52:47;100633.38;;;13.93;62.17
23427;BME280;41148;45.420;10.952;2024-03-06T10:55:16;100641.91;;;14.02;62.39
23427;BME280;41148;45.420;10.952;2024-03-06T10:57:44;100631.31;;;14.40;62.22
23427;BME280;41148;45.420;10.952;2024-03-06T11:00:14;100635.66;;;14.43;60.80
23427;BME280;41148;45.420;10.952;2024-03-06T11:02:46;100627.31;;;14.50;60.18
23427;BME280;41148;45.420;10.952;2024-03-06T11:05:15;100626.53;;;14.48;60.49
23427;BME280;41148;45.420;10.952;2024-03-06T11:07:42;100624.94;;;14.43;61.59
23427;BME280;41148;45.420;10.952;2024-03-06T11:10:10;100620.84;;;14.54;62.29
23427;BME280;41148;45.420;10.952;2024-03-06T11:12:43;100620.59;;;14.60;61.88
23427;BME280;41148;45.420;10.952;2024-03-06T11:15:16;100617.78;;;14.82;61.59
23427;BME280;41148;45.420;10.952;2024-03-06T11:17:46;100622.56;;;14.95;60.65
23427;BME280;41148;45.420;10.952;2024-03-06T11:20:18;100616.25;;;14.58;60.47
23427;BME280;41148;45.420;10.952;2024-03-06T11:28:16;100617.31;;;14.54;62.86
23427;BME280;41148;45.420;10.952;2024-03-06T11:30:48;100624.06;;;14.63;62.13
23427;BME280;41148;45.420;10.952;2024-03-06T11:33:21;100629.19;;;14.87;62.91
23427;BME280;41148;45.420;10.952;2024-03-06T11:38:37;100623.22;;;15.00;61.80
23427;BME280;41148;45.420;10.952;2024-03-06T11:41:04;100617.72;;;15.03;60.82
23427;BME280;41148;45.420;10.952;2024-03-06T11:43:41;100619.88;;;14.95;62.33
23427;BME280;41148;45.420;10.952;2024-03-06T11:46:09;100630.41;;;14.99;60.03
23427;BME280;41148;45.420;10.952;2024-03-06T11:48:37;100619.84;;;14.96;60.69
23427;BME280;41148;45.420;10.952;2024-03-06T11:51:04;100620.72;;;14.76;61.82
23427;BME280;41148;45.420;10.952;2024-03-06T11:53:33;100622.72;;;15.10;60.80
23427;BME280;41148;45.420;10.952;2024-03-06T11:56:01;100606.91;;;15.04;61.38
23427;BME280;41148;45.420;10.952;2024-03-06T12:01:21;100607.66;;;15.08;58.53
23427;BME280;41148;45.420;10.952;2024-03-06T12:03:49;100601.63;;;15.03;57.80
23427;BME280;41148;45.420;10.952;2024-03-06T12:06:16;100605.09;;;14.86;60.56
23427;BME280;41148;45.420;10.952;2024-03-06T12:08:46;100591.56;;;14.89;59.20
23427;BME280;41148;45.420;10.952;2024-03-06T12:11:14;100594.16;;;15.09;58.94
23427;BME280;41148;45.420;10.952;2024-03-06T12:13:41;100593.44;;;15.06;58.77
23427;BME280;41148;45.420;10.952;2024-03-06T12:16:09;100592.94;;;15.34;58.89
23427;BME280;41148;45.420;10.952;2024-03-06T12:18:38;100598.69;;;15.45;57.39
23427;BME280;41148;45.420;10.952;2024-03-06T12:21:05;100592.09;;;15.14;55.88
23427;BME280;41148;45.420;10.952;2024-03-06T12:23:32;100594.75;;;14.97;56.25
23427;BME280;41148;45.420;10.952;2024-03-06T12:26:03;100583.44;;;14.91;56.87
23427;BME280;41148;45.420;10.952;2024-03-06T12:28:33;100585.00;;;15.13;55.19
23427;BME280;41148;45.420;10.952;2024-03-06T12:31:03;100582.47;;;14.92;54.91
23427;BME280;41148;45.420;10.952;2024-03-06T12:33:31;100596.56;;;14.78;56.74
23427;BME280;41148;45.420;10.952;2024-03-06T12:36:02;100585.00;;;14.76;56.33
23427;BME280;41148;45.420;10.952;2024-03-06T12:38:29;100580.22;;;15.01;56.37
23427;BME280;41148;45.420;10.952;2024-03-06T12:40:57;100586.25;;;15.06;56.03
23427;BME280;41148;45.420;10.952;2024-03-06T12:43:25;100582.03;;;15.20;56.81
23427;BME280;41148;45.420;10.952;2024-03-06T12:45:53;100576.66;;;15.20;55.79
23427;BME280;41148;45.420;10.952;2024-03-06T12:48:21;100590.91;;;15.39;54.41
23427;BME280;41148;45.420;10.952;2024-03-06T12:50:49;100593.78;;;15.17;56.16
23427;BME280;41148;45.420;10.952;2024-03-06T12:53:19;100589.50;;;14.75;55.69
23427;BME280;41148;45.420;10.952;2024-03-06T12:55:47;100601.63;;;14.84;55.32
23427;BME280;41148;45.420;10.952;2024-03-06T12:58:14;100584.00;;;14.97;55.70